sensor_id;sensor_type;location;lat;lon;timestamp;temperature;humidity
22917;DHT22;11624;53.250;7.456;2023-12-22T00:00:06;11.14;53.56
22917;DHT22;11624;53.250;7.456;2023-12-22T00:02:35;11.11;53.86
22917;DHT22;11624;53.250;7.456;2023-12-22T00:05:03;11.08;53.75
22917;DHT22;11624;53.250;7.456;2023-12-22T00:07:32;11.03;54.17
22917;DHT22;11624;53.250;7.456;2023-12-22T00:10:00;10.95;54.18
22917;DHT22;11624;53.250;7.456;2023-12-22T00:12:27;10.90;54.28
22917;DHT22;11624;53.250;7.456;2023-12-22T00:14:57;10.93;54.01
22917;DHT22;11624;53.250;7.456;2023-12-22T00:17:25;10.98;53.73
22917;DHT22;11624;53.250;7.456;2023-12-22T00:19:53;11.01;53.74
22917;DHT22;11624;53.250;7.456;2023-12-22T00:22:23;11.00;54.04
22917;DHT22;11624;53.250;7.456;2023-12-22T00:24:52;11.12;54.15
22917;DHT22;11624;53.250;7.456;2023-12-22T00:27:20;11.20;53.85
22917;DHT22;11624;53.250;7.456;2023-12-22T00:29:48;11.23;53.72
22917;DHT22;11624;53.250;7.456;2023-12-22T00:32:17;11.34;53.43
22917;DHT22;11624;53.250;7.456;2023-12-22T00:34:46;11.16;53.48
22917;DHT22;11624;53.250;7.456;2023-12-22T00:37:14;10.87;54.07
22917;DHT22;11624;53.250;7.456;2023-12-22T00:39:42;10.57;54.98
22917;DHT22;11624;53.250;7.456;2023-12-22T00:42:10;10.38;55.90
22917;DHT22;11624;53.250;7.456;2023-12-22T00:44:38;10.36;56.08
22917;DHT22;11624;53.250;7.456;2023-12-22T00:47:07;10.38;56.10
22917;DHT22;11624;53.250;7.456;2023-12-22T00:49:36;10.36;56.14
22917;DHT22;11624;53.250;7.456;2023-12-22T00:52:05;10.23;56.27
22917;DHT22;11624;53.250;7.456;2023-12-22T00:54:33;10.31;56.27
22917;DHT22;11624;53.250;7.456;2023-12-22T00:57:01;10.41;56.10
22917;DHT22;11624;53.250;7.456;2023-12-22T00:59:29;10.48;56.05
22917;DHT22;11624;53.250;7.456;2023-12-22T01:01:58;10.49;56.19
22917;DHT22;11624;53.250;7.456;2023-12-22T01:04:26;10.66;56.23
22917;DHT22;11624;53.250;7.456;2023-12-22T01:06:56;10.74;56.39
22917;DHT22;11624;53.250;7.456;2023-12-22T01:09:24;10.71;56.39
22917;DHT22;11624;53.250;7.456;2023-12-22T01:11:52;10.71;55.93
22917;DHT22;11624;53.250;7.456;2023-12-22T01:14:21;10.73;55.61
22917;DHT22;11624;53.250;7.456;2023-12-22T01:16:49;10.71;55.34
22917;DHT22;11624;53.250;7.456;2023-12-22T01:19:17;10.69;55.26
22917;DHT22;11624;53.250;7.456;2023-12-22T01:21:45;10.65;55.23
22917;DHT22;11624;53.250;7.456;2023-12-22T01:24:18;10.67;55.07
22917;DHT22;11624;53.250;7.456;2023-12-22T01:26:47;10.71;54.97
22917;DHT22;11624;53.250;7.456;2023-12-22T01:29:15;10.71;54.81
22917;DHT22;11624;53.250;7.456;2023-12-22T01:31:43;10.75;54.84
22917;DHT22;11624;53.250;7.456;2023-12-22T01:34:11;10.81;54.42
22917;DHT22;11624;53.250;7.456;2023-12-22T01:36:39;10.92;54.42
22917;DHT22;11624;53.250;7.456;2023-12-22T01:39:08;10.99;53.73
22917;DHT22;11624;53.250;7.456;2023-12-22T01:41:38;11.13;53.22
22917;DHT22;11624;53.250;7.456;2023-12-22T01:44:06;11.28;53.15
22917;DHT22;11624;53.250;7.456;2023-12-22T01:46:36;11.43;52.71
22917;DHT22;11624;53.250;7.456;2023-12-22T01:49:05;11.52;52.87
22917;DHT22;11624;53.250;7.456;2023-12-22T01:51:36;11.43;52.94
22917;DHT22;11624;53.250;7.456;2023-12-22T01:54:06;11.37;53.11
22917;DHT22;11624;53.250;7.456;2023-12-22T01:56:35;11.25;53.62
22917;DHT22;11624;53.250;7.456;2023-12-22T01:59:05;11.28;53.52
22917;DHT22;11624;53.250;7.456;2023-12-22T02:01:35;11.36;53.59
22917;DHT22;11624;53.250;7.456;2023-12-22T02:04:03;11.41;53.57
22917;DHT22;11624;53.250;7.456;2023-12-22T02:06:34;11.51;53.39
22917;DHT22;11624;53.250;7.456;2023-12-22T02:09:03;11.58;53.11
22917;DHT22;11624;53.250;7.456;2023-12-22T02:11:32;11.61;53.00
22917;DHT22;11624;53.250;7.456;2023-12-22T02:14:00;11.62;52.92
22917;DHT22;11624;53.250;7.456;2023-12-22T02:16:35;11.58;52.77
22917;DHT22;11624;53.250;7.456;2023-12-22T02:19:13;11.56;52.51
22917;DHT22;11624;53.250;7.456;2023-12-22T02:22:01;11.60;52.54
22917;DHT22;11624;53.250;7.456;2023-12-22T02:24:36;11.59;52.43
22917;DHT22;11624;53.250;7.456;2023-12-22T02:27:06;11.73;51.97
22917;DHT22;11624;53.250;7.456;2023-12-22T02:29:39;11.73;51.16
22917;DHT22;11624;53.250;7.456;2023-12-22T02:32:14;11.75;49.52
22917;DHT22;11624;53.250;7.456;2023-12-22T02:34:49;11.82;48.69
22917;DHT22;11624;53.250;7.456;2023-12-22T02:37:20;11.79;47.43
22917;DHT22;11624;53.250;7.456;2023-12-22T02:39:51;11.86;47.65
22917;DHT22;11624;53.250;7.456;2023-12-22T02:42:21;11.87;47.50
22917;DHT22;11624;53.250;7.456;2023-12-22T02:44:57;11.90;48.25
22917;DHT22;11624;53.250;7.456;2023-12-22T02:47:25;11.94;49.13
22917;DHT22;11624;53.250;7.456;2023-12-22T02:49:55;11.90;49.58
22917;DHT22;11624;53.250;7.456;2023-12-22T02:52:23;11.87;49.98
22917;DHT22;11624;53.250;7.456;2023-12-22T02:54:53;11.90;50.41
22917;DHT22;11624;53.250;7.456;2023-12-22T02:57:21;11.75;51.61
22917;DHT22;11624;53.250;7.456;2023-12-22T02:59:49;11.68;52.43
22917;DHT22;11624;53.250;7.456;2023-12-22T03:02:18;11.55;53.23
22917;DHT22;11624;53.250;7.456;2023-12-22T03:04:46;11.53;53.75
22917;DHT22;11624;53.250;7.456;2023-12-22T03:07:14;11.36;54.01
22917;DHT22;11624;53.250;7.456;2023-12-22T03:09:43;11.37;53.59
22917;DHT22;11624;53.250;7.456;2023-12-22T03:12:13;11.41;53.36
22917;DHT22;11624;53.250;7.456;2023-12-22T03:14:41;11.33;52.97
22917;DHT22;11624;53.250;7.456;2023-12-22T03:17:09;11.31;53.14
22917;DHT22;11624;53.250;7.456;2023-12-22T03:19:39;11.33;52.94
22917;DHT22;11624;53.250;7.456;2023-12-22T03:22:07;11.40;52.67
22917;DHT22;11624;53.250;7.456;2023-12-22T03:24:35;11.39;52.39
22917;DHT22;11624;53.250;7.456;2023-12-22T03:27:05;11.40;52.14
22917;DHT22;11624;53.250;7.456;2023-12-22T03:29:35;11.53;52.23
22917;DHT22;11624;53.250;7.456;2023-12-22T03:32:04;11.55;52.32
22917;DHT22;11624;53.250;7.456;2023-12-22T03:34:32;11.58;52.04
22917;DHT22;11624;53.250;7.456;2023-12-22T03:37:00;11.63;51.66
22917;DHT22;11624;53.250;7.456;2023-12-22T03:39:29;11.68;51.52
22917;DHT22;11624;53.250;7.456;2023-12-22T03:41:57;11.79;51.34
22917;DHT22;11624;53.250;7.456;2023-12-22T03:44:26;11.79;51.18
22917;DHT22;11624;53.250;7.456;2023-12-22T03:46:56;11.75;51.70
22917;DHT22;11624;53.250;7.456;2023-12-22T03:49:24;11.60;52.17
22917;DHT22;11624;53.250;7.456;2023-12-22T03:51:52;11.46;52.58
22917;DHT22;11624;53.250;7.456;2023-12-22T03:54:20;11.31;53.26
22917;DHT22;11624;53.250;7.456;2023-12-22T03:56:48;11.17;53.28
22917;DHT22;11624;53.250;7.456;2023-12-22T03:59:16;11.11;53.01
22917;DHT22;11624;53.250;7.456;2023-12-22T04:01:50;11.09;52.56
22917;DHT22;11624;53.250;7.456;2023-12-22T04:04:21;11.01;53.04
22917;DHT22;11624;53.250;7.456;2023-12-22T04:06:50;11.04;53.20
22917;DHT22;11624;53.250;7.456;2023-12-22T04:09:18;10.99;53.35
22917;DHT22;11624;53.250;7.456;2023-12-22T04:11:46;11.07;53.30
22917;DHT22;11624;53.250;7.456;2023-12-22T04:14:14;11.14;53.45
22917;DHT22;11624;53.250;7.456;2023-12-22T04:16:45;11.23;53.49
22917;DHT22;11624;53.250;7.456;2023-12-22T04:19:14;11.28;53.58
22917;DHT22;11624;53.250;7.456;2023-12-22T04:21:44;11.24;53.13
22917;DHT22;11624;53.250;7.456;2023-12-22T04:24:12;11.32;52.62
22917;DHT22;11624;53.250;7.456;2023-12-22T04:26:40;11.38;52.30
22917;DHT22;11624;53.250;7.456;2023-12-22T04:29:08;11.30;51.77
22917;DHT22;11624;53.250;7.456;2023-12-22T04:31:36;11.26;51.61
22917;DHT22;11624;53.250;7.456;2023-12-22T04:34:05;11.22;51.56
22917;DHT22;11624;53.250;7.456;2023-12-22T04:36:33;11.25;51.75
22917;DHT22;11624;53.250;7.456;2023-12-22T04:39:02;11.28;51.08
22917;DHT22;11624;53.250;7.456;2023-12-22T04:41:31;11.32;51.00
22917;DHT22;11624;53.250;7.456;2023-12-22T04:43:59;11.38;50.77
22917;DHT22;11624;53.250;7.456;2023-12-22T04:46:30;11.41;50.82
22917;DHT22;11624;53.250;7.456;2023-12-22T04:48:58;11.51;51.13
22917;DHT22;11624;53.250;7.456;2023-12-22T04:51:27;11.55;51.28
22917;DHT22;11624;53.250;7.456;2023-12-22T04:53:55;11.61;51.92
22917;DHT22;11624;53.250;7.456;2023-12-22T04:56:24;11.62;51.81
22917;DHT22;11624;53.250;7.456;2023-12-22T04:58:53;11.61;51.87
22917;DHT22;11624;53.250;7.456;2023-12-22T05:01:21;11.67;50.22
22917;DHT22;11624;53.250;7.456;2023-12-22T05:03:49;11.72;49.97
22917;DHT22;11624;53.250;7.456;2023-12-22T05:06:18;11.83;49.05
22917;DHT22;11624;53.250;7.456;2023-12-22T05:08:46;11.87;48.78
22917;DHT22;11624;53.250;7.456;2023-12-22T05:11:14;11.92;48.59
22917;DHT22;11624;53.250;7.456;2023-12-22T05:13:44;11.98;48.05
22917;DHT22;11624;53.250;7.456;2023-12-22T05:16:12;11.94;47.91
22917;DHT22;11624;53.250;7.456;2023-12-22T05:18:40;12.01;47.25
22917;DHT22;11624;53.250;7.456;2023-12-22T05:21:12;12.06;47.00
22917;DHT22;11624;53.250;7.456;2023-12-22T05:23:40;12.16;47.16
22917;DHT22;11624;53.250;7.456;2023-12-22T05:26:08;12.18;47.70
22917;DHT22;11624;53.250;7.456;2023-12-22T05:28:36;12.20;48.21
22917;DHT22;11624;53.250;7.456;2023-12-22T05:31:06;12.16;48.29
22917;DHT22;11624;53.250;7.456;2023-12-22T05:33:34;12.15;48.05
22917;DHT22;11624;53.250;7.456;2023-12-22T05:36:03;12.12;47.63
22917;DHT22;11624;53.250;7.456;2023-12-22T05:38:31;12.02;46.18
22917;DHT22;11624;53.250;7.456;2023-12-22T05:40:59;11.99;45.69
22917;DHT22;11624;53.250;7.456;2023-12-22T05:43:27;12.06;45.28
22917;DHT22;11624;53.250;7.456;2023-12-22T05:45:56;12.07;45.26
22917;DHT22;11624;53.250;7.456;2023-12-22T05:48:26;12.05;45.33
22917;DHT22;11624;53.250;7.456;2023-12-22T05:50:56;12.15;46.02
22917;DHT22;11624;53.250;7.456;2023-12-22T05:53:24;12.18;46.88
22917;DHT22;11624;53.250;7.456;2023-12-22T05:55:52;12.19;47.86
22917;DHT22;11624;53.250;7.456;2023-12-22T05:58:21;12.21;48.44
22917;DHT22;11624;53.250;7.456;2023-12-22T06:00:49;12.21;48.78
22917;DHT22;11624;53.250;7.456;2023-12-22T06:03:17;12.23;49.06
22917;DHT22;11624;53.250;7.456;2023-12-22T06:05:47;12.22;49.19
22917;DHT22;11624;53.250;7.456;2023-12-22T06:08:15;12.27;49.09
22917;DHT22;11624;53.250;7.456;2023-12-22T06:10:43;12.30;48.98
22917;DHT22;11624;53.250;7.456;2023-12-22T06:13:12;12.36;48.65
22917;DHT22;11624;53.250;7.456;2023-12-22T06:15:41;12.40;48.52
22917;DHT22;11624;53.250;7.456;2023-12-22T06:18:09;12.41;48.37
22917;DHT22;11624;53.250;7.456;2023-12-22T06:20:37;12.38;48.26
22917;DHT22;11624;53.250;7.456;2023-12-22T06:23:07;12.45;47.96
22917;DHT22;11624;53.250;7.456;2023-12-22T06:25:35;12.51;48.15
22917;DHT22;11624;53.250;7.456;2023-12-22T06:28:04;12.53;48.25
22917;DHT22;11624;53.250;7.456;2023-12-22T06:30:32;12.53;48.31
22917;DHT22;11624;53.250;7.456;2023-12-22T06:33:00;12.53;48.34
22917;DHT22;11624;53.250;7.456;2023-12-22T06:35:28;12.58;47.71
22917;DHT22;11624;53.250;7.456;2023-12-22T06:37:58;12.62;47.57
22917;DHT22;11624;53.250;7.456;2023-12-22T06:40:32;12.63;47.71
22917;DHT22;11624;53.250;7.456;2023-12-22T06:43:00;12.64;47.73
22917;DHT22;11624;53.250;7.456;2023-12-22T06:45:28;12.58;47.84
22917;DHT22;11624;53.250;7.456;2023-12-22T06:47:57;12.58;47.48
22917;DHT22;11624;53.250;7.456;2023-12-22T06:50:25;12.52;47.41
22917;DHT22;11624;53.250;7.456;2023-12-22T06:52:53;12.48;47.45
22917;DHT22;11624;53.250;7.456;2023-12-22T06:55:22;12.52;47.47
22917;DHT22;11624;53.250;7.456;2023-12-22T06:57:51;12.58;47.66
22917;DHT22;11624;53.250;7.456;2023-12-22T07:00:20;12.61;47.90
22917;DHT22;11624;53.250;7.456;2023-12-22T07:02:48;12.59;47.98
22917;DHT22;11624;53.250;7.456;2023-12-22T07:05:33;12.57;47.42
22917;DHT22;11624;53.250;7.456;2023-12-22T07:08:06;12.56;47.35
22917;DHT22;11624;53.250;7.456;2023-12-22T07:10:34;12.55;47.38
22917;DHT22;11624;53.250;7.456;2023-12-22T07:13:04;12.53;47.57
22917;DHT22;11624;53.250;7.456;2023-12-22T07:15:33;12.53;47.50
22917;DHT22;11624;53.250;7.456;2023-12-22T07:18:01;12.50;47.64
22917;DHT22;11624;53.250;7.456;2023-12-22T07:20:31;12.51;47.62
22917;DHT22;11624;53.250;7.456;2023-12-22T07:22:59;12.53;47.61
22917;DHT22;11624;53.250;7.456;2023-12-22T07:25:27;12.53;47.29
22917;DHT22;11624;53.250;7.456;2023-12-22T07:27:57;12.51;47.17
22917;DHT22;11624;53.250;7.456;2023-12-22T07:30:26;12.60;47.07
22917;DHT22;11624;53.250;7.456;2023-12-22T07:32:54;12.65;47.27
22917;DHT22;11624;53.250;7.456;2023-12-22T07:35:22;12.63;47.43
22917;DHT22;11624;53.250;7.456;2023-12-22T07:37:51;12.65;47.12
22917;DHT22;11624;53.250;7.456;2023-12-22T07:40:22;12.65;46.80
22917;DHT22;11624;53.250;7.456;2023-12-22T07:42:50;12.65;46.85
22917;DHT22;11624;53.250;7.456;2023-12-22T07:45:19;12.63;46.47
22917;DHT22;11624;53.250;7.456;2023-12-22T07:47:49;12.55;46.06
22917;DHT22;11624;53.250;7.456;2023-12-22T07:50:18;12.46;46.13
22917;DHT22;11624;53.250;7.456;2023-12-22T07:52:47;12.34;45.92
22917;DHT22;11624;53.250;7.456;2023-12-22T07:55:17;12.27;45.96
22917;DHT22;11624;53.250;7.456;2023-12-22T07:57:45;12.22;45.94
22917;DHT22;11624;53.250;7.456;2023-12-22T08:00:15;12.18;46.22
22917;DHT22;11624;53.250;7.456;2023-12-22T08:02:43;12.16;46.72
22917;DHT22;11624;53.250;7.456;2023-12-22T08:05:13;12.13;47.21
22917;DHT22;11624;53.250;7.456;2023-12-22T08:07:42;12.10;47.92
22917;DHT22;11624;53.250;7.456;2023-12-22T08:10:10;12.11;48.16
22917;DHT22;11624;53.250;7.456;2023-12-22T08:12:39;12.14;48.30
22917;DHT22;11624;53.250;7.456;2023-12-22T08:15:08;12.12;48.60
22917;DHT22;11624;53.250;7.456;2023-12-22T08:17:47;12.16;48.60
22917;DHT22;11624;53.250;7.456;2023-12-22T08:20:18;12.08;49.20
22917;DHT22;11624;53.250;7.456;2023-12-22T08:22:54;12.17;49.44
22917;DHT22;11624;53.250;7.456;2023-12-22T08:25:23;12.26;49.68
22917;DHT22;11624;53.250;7.456;2023-12-22T08:27:52;12.30;50.00
22917;DHT22;11624;53.250;7.456;2023-12-22T08:30:20;12.36;50.24
22917;DHT22;11624;53.250;7.456;2023-12-22T08:32:48;12.34;50.59
22917;DHT22;11624;53.250;7.456;2023-12-22T08:35:18;12.43;50.79
22917;DHT22;11624;53.250;7.456;2023-12-22T08:37:46;12.43;51.16
22917;DHT22;11624;53.250;7.456;2023-12-22T08:40:15;12.46;51.28
22917;DHT22;11624;53.250;7.456;2023-12-22T08:42:43;12.46;51.52
22917;DHT22;11624;53.250;7.456;2023-12-22T08:45:11;12.44;51.56
22917;DHT22;11624;53.250;7.456;2023-12-22T08:47:40;12.48;50.95
22917;DHT22;11624;53.250;7.456;2023-12-22T08:50:09;12.59;50.63
22917;DHT22;11624;53.250;7.456;2023-12-22T08:52:40;12.62;50.72
22917;DHT22;11624;53.250;7.456;2023-12-22T08:55:09;12.67;50.76
22917;DHT22;11624;53.250;7.456;2023-12-22T08:57:37;12.65;51.07
22917;DHT22;11624;53.250;7.456;2023-12-22T09:00:14;12.64;51.37
22917;DHT22;11624;53.250;7.456;2023-12-22T09:02:43;12.66;51.79
22917;DHT22;11624;53.250;7.456;2023-12-22T09:05:11;12.70;51.87
22917;DHT22;11624;53.250;7.456;2023-12-22T09:07:41;12.69;52.17
22917;DHT22;11624;53.250;7.456;2023-12-22T09:10:09;12.56;52.88
22917;DHT22;11624;53.250;7.456;2023-12-22T09:12:39;12.67;52.53
22917;DHT22;11624;53.250;7.456;2023-12-22T09:15:07;12.64;52.74
22917;DHT22;11624;53.250;7.456;2023-12-22T09:17:35;12.70;52.64
22917;DHT22;11624;53.250;7.456;2023-12-22T09:20:05;12.71;52.80
22917;DHT22;11624;53.250;7.456;2023-12-22T09:22:34;12.78;52.69
22917;DHT22;11624;53.250;7.456;2023-12-22T09:25:05;12.82;52.62
22917;DHT22;11624;53.250;7.456;2023-12-22T09:27:35;12.79;52.99
22917;DHT22;11624;53.250;7.456;2023-12-22T09:30:04;12.87;52.98
22917;DHT22;11624;53.250;7.456;2023-12-22T09:32:34;12.85;53.29
22917;DHT22;11624;53.250;7.456;2023-12-22T09:35:03;12.87;53.43
22917;DHT22;11624;53.250;7.456;2023-12-22T09:37:31;12.95;53.35
22917;DHT22;11624;53.250;7.456;2023-12-22T09:40:03;13.00;53.28
22917;DHT22;11624;53.250;7.456;2023-12-22T09:42:34;13.05;53.18
22917;DHT22;11624;53.250;7.456;2023-12-22T09:45:04;13.07;53.14
22917;DHT22;11624;53.250;7.456;2023-12-22T09:47:34;13.10;53.18
22917;DHT22;11624;53.250;7.456;2023-12-22T09:50:04;13.09;53.34
22917;DHT22;11624;53.250;7.456;2023-12-22T09:52:34;13.09;53.37
22917;DHT22;11624;53.250;7.456;2023-12-22T09:55:05;13.04;53.13
22917;DHT22;11624;53.250;7.456;2023-12-22T09:57:37;13.02;53.67
22917;DHT22;11624;53.250;7.456;2023-12-22T10:00:08;13.04;53.64
22917;DHT22;11624;53.250;7.456;2023-12-22T10:02:37;13.02;53.81
22917;DHT22;11624;53.250;7.456;2023-12-22T10:05:05;13.12;53.70
22917;DHT22;11624;53.250;7.456;2023-12-22T10:07:35;13.16;53.49
22917;DHT22;11624;53.250;7.456;2023-12-22T10:10:07;13.19;53.39
22917;DHT22;11624;53.250;7.456;2023-12-22T10:12:38;13.27;53.35
22917;DHT22;11624;53.250;7.456;2023-12-22T10:15:08;13.34;53.23
22917;DHT22;11624;53.250;7.456;2023-12-22T10:17:37;13.32;53.16
22917;DHT22;11624;53.250;7.456;2023-12-22T10:20:06;13.35;53.12
22917;DHT22;11624;53.250;7.456;2023-12-22T10:22:35;13.26;53.42
22917;DHT22;11624;53.250;7.456;2023-12-22T10:25:05;13.34;53.41
22917;DHT22;11624;53.250;7.456;2023-12-22T10:27:36;13.33;53.61
22917;DHT22;11624;53.250;7.456;2023-12-22T10:30:05;13.30;53.71
22917;DHT22;11624;53.250;7.456;2023-12-22T10:32:39;13.29;53.48
22917;DHT22;11624;53.250;7.456;2023-12-22T10:35:08;13.26;53.80
22917;DHT22;11624;53.250;7.456;2023-12-22T10:37:37;13.24;53.98
22917;DHT22;11624;53.250;7.456;2023-12-22T10:40:08;13.18;54.13
22917;DHT22;11624;53.250;7.456;2023-12-22T10:42:37;13.17;54.51
22917;DHT22;11624;53.250;7.456;2023-12-22T10:45:08;13.23;54.49
22917;DHT22;11624;53.250;7.456;2023-12-22T10:47:38;13.24;54.49
22917;DHT22;11624;53.250;7.456;2023-12-22T10:50:07;13.33;54.18
22917;DHT22;11624;53.250;7.456;2023-12-22T10:52:35;13.36;54.04
22917;DHT22;11624;53.250;7.456;2023-12-22T10:55:04;13.38;54.04
22917;DHT22;11624;53.250;7.456;2023-12-22T10:57:34;13.48;53.65
22917;DHT22;11624;53.250;7.456;2023-12-22T11:00:06;13.56;53.37
22917;DHT22;11624;53.250;7.456;2023-12-22T11:02:37;13.61;52.69
22917;DHT22;11624;53.250;7.456;2023-12-22T11:05:10;13.67;52.72
22917;DHT22;11624;53.250;7.456;2023-12-22T11:07:41;13.73;52.09
22917;DHT22;11624;53.250;7.456;2023-12-22T11:10:14;13.79;52.07
22917;DHT22;11624;53.250;7.456;2023-12-22T11:12:47;13.82;52.02
22917;DHT22;11624;53.250;7.456;2023-12-22T11:15:18;13.88;51.96
22917;DHT22;11624;53.250;7.456;2023-12-22T11:17:48;13.99;51.77
22917;DHT22;11624;53.250;7.456;2023-12-22T11:20:18;13.99;51.69
22917;DHT22;11624;53.250;7.456;2023-12-22T11:22:48;13.99;51.30
22917;DHT22;11624;53.250;7.456;2023-12-22T11:25:18;14.05;51.24
22917;DHT22;11624;53.250;7.456;2023-12-22T11:27:50;14.05;51.01
22917;DHT22;11624;53.250;7.456;2023-12-22T11:30:21;14.00;50.88
22917;DHT22;11624;53.250;7.456;2023-12-22T11:32:53;14.00;51.04
22917;DHT22;11624;53.250;7.456;2023-12-22T11:35:23;14.01;51.07
22917;DHT22;11624;53.250;7.456;2023-12-22T11:38:00;14.09;51.01
22917;DHT22;11624;53.250;7.456;2023-12-22T11:40:29;14.13;50.92
22917;DHT22;11624;53.250;7.456;2023-12-22T11:42:59;14.10;50.67
22917;DHT22;11624;53.250;7.456;2023-12-22T11:45:30;14.12;50.69
22917;DHT22;11624;53.250;7.456;2023-12-22T11:48:06;14.07;50.42
22917;DHT22;11624;53.250;7.456;2023-12-22T11:50:34;14.14;50.74
22917;DHT22;11624;53.250;7.456;2023-12-22T11:53:18;14.08;50.47
22917;DHT22;11624;53.250;7.456;2023-12-22T11:56:00;14.00;50.48
22917;DHT22;11624;53.250;7.456;2023-12-22T11:58:38;14.04;50.53
22917;DHT22;11624;53.250;7.456;2023-12-22T12:01:08;14.07;50.91
22917;DHT22;11624;53.250;7.456;2023-12-22T12:03:38;14.13;50.91
22917;DHT22;11624;53.250;7.456;2023-12-22T12:06:15;14.13;50.46
22917;DHT22;11624;53.250;7.456;2023-12-22T12:08:44;14.18;51.04
22917;DHT22;11624;53.250;7.456;2023-12-22T12:11:12;14.23;50.73
22917;DHT22;11624;53.250;7.456;2023-12-22T12:13:44;14.14;50.92
22917;DHT22;11624;53.250;7.456;2023-12-22T12:16:13;14.11;51.38
22917;DHT22;11624;53.250;7.456;2023-12-22T12:18:42;14.11;51.66
22917;DHT22;11624;53.250;7.456;2023-12-22T12:21:10;14.14;51.75
22917;DHT22;11624;53.250;7.456;2023-12-22T12:23:41;14.17;51.77
22917;DHT22;11624;53.250;7.456;2023-12-22T12:26:09;14.03;52.30
22917;DHT22;11624;53.250;7.456;2023-12-22T12:28:45;13.99;52.20
22917;DHT22;11624;53.250;7.456;2023-12-22T12:31:14;14.04;52.43
22917;DHT22;11624;53.250;7.456;2023-12-22T12:33:43;14.07;52.59
22917;DHT22;11624;53.250;7.456;2023-12-22T12:36:13;14.09;52.55
22917;DHT22;11624;53.250;7.456;2023-12-22T12:38:47;14.08;52.47
22917;DHT22;11624;53.250;7.456;2023-12-22T12:41:27;14.01;52.49
22917;DHT22;11624;53.250;7.456;2023-12-22T12:43:58;13.91;53.14
22917;DHT22;11624;53.250;7.456;2023-12-22T12:46:32;13.81;52.46
22917;DHT22;11624;53.250;7.456;2023-12-22T12:49:04;13.70;52.61
22917;DHT22;11624;53.250;7.456;2023-12-22T12:51:36;13.70;52.55
22917;DHT22;11624;53.250;7.456;2023-12-22T12:54:06;13.59;53.01
22917;DHT22;11624;53.250;7.456;2023-12-22T12:56:39;13.54;52.89
22917;DHT22;11624;53.250;7.456;2023-12-22T12:59:09;13.52;52.75
22917;DHT22;11624;53.250;7.456;2023-12-22T13:01:38;13.52;52.65
22917;DHT22;11624;53.250;7.456;2023-12-22T13:04:07;13.48;52.56
22917;DHT22;11624;53.250;7.456;2023-12-22T13:06:36;13.44;52.53
22917;DHT22;11624;53.250;7.456;2023-12-22T13:09:10;13.41;52.57
22917;DHT22;11624;53.250;7.456;2023-12-22T13:11:40;13.47;52.37
22917;DHT22;11624;53.250;7.456;2023-12-22T13:14:10;13.52;52.30
22917;DHT22;11624;53.250;7.456;2023-12-22T13:16:39;13.55;52.20
22917;DHT22;11624;53.250;7.456;2023-12-22T13:19:08;13.49;52.31
22917;DHT22;11624;53.250;7.456;2023-12-22T13:21:36;13.52;52.38
22917;DHT22;11624;53.250;7.456;2023-12-22T13:24:08;13.48;52.28
22917;DHT22;11624;53.250;7.456;2023-12-22T13:26:37;13.50;52.74
22917;DHT22;11624;53.250;7.456;2023-12-22T13:29:05;13.51;52.79
22917;DHT22;11624;53.250;7.456;2023-12-22T13:31:37;13.54;52.72
22917;DHT22;11624;53.250;7.456;2023-12-22T13:34:08;13.56;52.73
22917;DHT22;11624;53.250;7.456;2023-12-22T13:36:37;13.50;53.32
22917;DHT22;11624;53.250;7.456;2023-12-22T13:39:06;13.52;53.47
22917;DHT22;11624;53.250;7.456;2023-12-22T13:41:34;13.45;53.80
22917;DHT22;11624;53.250;7.456;2023-12-22T13:44:07;13.34;53.88
22917;DHT22;11624;53.250;7.456;2023-12-22T13:46:37;13.12;53.39
22917;DHT22;11624;53.250;7.456;2023-12-22T13:49:08;12.92;53.75
22917;DHT22;11624;53.250;7.456;2023-12-22T13:51:41;12.67;54.10
22917;DHT22;11624;53.250;7.456;2023-12-22T13:54:09;12.58;54.82
22917;DHT22;11624;53.250;7.456;2023-12-22T13:56:38;12.57;55.17
22917;DHT22;11624;53.250;7.456;2023-12-22T13:59:08;12.55;55.41
22917;DHT22;11624;53.250;7.456;2023-12-22T14:01:39;12.52;55.52
22917;DHT22;11624;53.250;7.456;2023-12-22T14:04:09;12.49;55.59
22917;DHT22;11624;53.250;7.456;2023-12-22T14:06:37;12.50;55.71
22917;DHT22;11624;53.250;7.456;2023-12-22T14:09:06;12.53;55.81
22917;DHT22;11624;53.250;7.456;2023-12-22T14:11:34;12.49;55.97
22917;DHT22;11624;53.250;7.456;2023-12-22T14:14:10;12.48;56.05
22917;DHT22;11624;53.250;7.456;2023-12-22T14:16:40;12.47;56.17
22917;DHT22;11624;53.250;7.456;2023-12-22T14:19:08;12.43;56.29
22917;DHT22;11624;53.250;7.456;2023-12-22T14:21:36;12.41;56.38
22917;DHT22;11624;53.250;7.456;2023-12-22T14:24:05;12.41;56.42
22917;DHT22;11624;53.250;7.456;2023-12-22T14:26:52;12.28;56.00
22917;DHT22;11624;53.250;7.456;2023-12-22T14:29:20;12.32;56.50
22917;DHT22;11624;53.250;7.456;2023-12-22T14:31:51;12.25;56.22
22917;DHT22;11624;53.250;7.456;2023-12-22T14:34:19;12.16;56.53
22917;DHT22;11624;53.250;7.456;2023-12-22T14:36:47;12.14;56.51
22917;DHT22;11624;53.250;7.456;2023-12-22T14:39:16;12.08;56.64
22917;DHT22;11624;53.250;7.456;2023-12-22T14:41:44;12.06;56.68
22917;DHT22;11624;53.250;7.456;2023-12-22T14:44:13;12.02;56.74
22917;DHT22;11624;53.250;7.456;2023-12-22T14:46:41;12.05;56.68
22917;DHT22;11624;53.250;7.456;2023-12-22T14:49:11;12.03;56.59
22917;DHT22;11624;53.250;7.456;2023-12-22T14:51:40;12.04;56.56
22917;DHT22;11624;53.250;7.456;2023-12-22T14:54:08;12.02;56.60
22917;DHT22;11624;53.250;7.456;2023-12-22T14:56:38;12.00;56.61
22917;DHT22;11624;53.250;7.456;2023-12-22T14:59:08;12.00;56.68
22917;DHT22;11624;53.250;7.456;2023-12-22T15:01:37;12.00;56.71
22917;DHT22;11624;53.250;7.456;2023-12-22T15:04:05;11.92;56.77
22917;DHT22;11624;53.250;7.456;2023-12-22T15:06:37;11.89;56.64
22917;DHT22;11624;53.250;7.456;2023-12-22T15:09:08;11.92;56.90
22917;DHT22;11624;53.250;7.456;2023-12-22T15:11:40;11.86;56.92
22917;DHT22;11624;53.250;7.456;2023-12-22T15:14:09;11.86;57.32
22917;DHT22;11624;53.250;7.456;2023-12-22T15:16:40;11.90;57.22
22917;DHT22;11624;53.250;7.456;2023-12-22T15:19:11;11.96;57.48
22917;DHT22;11624;53.250;7.456;2023-12-22T15:21:41;12.02;57.39
22917;DHT22;11624;53.250;7.456;2023-12-22T15:24:09;12.03;57.61
22917;DHT22;11624;53.250;7.456;2023-12-22T15:26:43;12.02;57.78
22917;DHT22;11624;53.250;7.456;2023-12-22T15:29:12;12.07;57.85
22917;DHT22;11624;53.250;7.456;2023-12-22T15:31:40;12.10;57.90
22917;DHT22;11624;53.250;7.456;2023-12-22T15:34:10;12.11;58.09
22917;DHT22;11624;53.250;7.456;2023-12-22T15:36:41;12.10;58.02
22917;DHT22;11624;53.250;7.456;2023-12-22T15:39:20;12.15;58.18
22917;DHT22;11624;53.250;7.456;2023-12-22T15:41:51;12.07;58.51
22917;DHT22;11624;53.250;7.456;2023-12-22T15:44:22;12.16;58.48